createdAt,value
2022-11-24T00:00:59.161Z,8.68
2022-11-24T00:01:59.190Z,8.58
2022-11-24T00:02:59.217Z,8.60
2022-11-24T00:03:59.084Z,8.47
2022-11-24T00:04:59.058Z,8.50
2022-11-24T00:05:59.040Z,8.47
2022-11-24T00:06:59.007Z,8.42
2022-11-24T00:07:58.993Z,8.39
2022-11-24T00:08:58.962Z,8.42
2022-11-24T00:09:58.927Z,8.37
2022-11-24T00:10:58.901Z,8.45
2022-11-24T00:11:58.899Z,8.44
2022-11-24T00:12:58.854Z,8.54
2022-11-24T00:13:58.839Z,8.57
2022-11-24T00:14:58.803Z,8.58
2022-11-24T00:15:58.802Z,8.58
2022-11-24T00:16:58.810Z,8.60
2022-11-24T00:17:58.731Z,8.62
2022-11-24T00:18:58.707Z,8.55
2022-11-24T00:19:58.683Z,8.66
2022-11-24T00:20:58.667Z,8.68
2022-11-24T00:21:58.629Z,8.68
2022-11-24T00:22:58.619Z,8.73
2022-11-24T00:23:58.582Z,8.81
2022-11-24T00:24:58.568Z,8.73
2022-11-24T00:25:58.531Z,8.62
2022-11-24T00:26:58.510Z,8.66
2022-11-24T00:27:58.487Z,8.68
2022-11-24T00:28:58.455Z,8.66
2022-11-24T00:29:58.429Z,8.72
2022-11-24T00:30:58.453Z,8.73
2022-11-24T00:31:58.387Z,8.79
2022-11-24T00:32:58.355Z,8.83
2022-11-24T00:33:58.334Z,8.83
2022-11-24T00:34:58.306Z,8.76
2022-11-24T00:35:58.283Z,8.84
2022-11-24T00:36:58.258Z,8.90
2022-11-24T00:37:58.241Z,8.83
2022-11-24T00:38:58.213Z,8.81
2022-11-24T00:39:58.185Z,8.88
2022-11-24T00:40:58.155Z,8.81
2022-11-24T00:41:58.138Z,8.94
2022-11-24T00:42:58.128Z,8.91
2022-11-24T00:43:58.097Z,8.81
2022-11-24T00:44:58.090Z,8.81
2022-11-24T00:45:58.157Z,8.81
2022-11-24T00:46:58.118Z,8.83
2022-11-24T00:47:57.987Z,8.84
2022-11-24T00:48:57.958Z,8.78
2022-11-24T00:49:57.941Z,8.86
2022-11-24T00:50:57.912Z,8.86
2022-11-24T00:51:57.889Z,8.91
2022-11-24T00:52:57.861Z,8.86
2022-11-24T00:53:57.835Z,8.94
2022-11-24T00:54:57.813Z,8.81
2022-11-24T00:55:57.793Z,8.79
2022-11-24T00:56:57.763Z,8.84
2022-11-24T00:57:57.741Z,8.96
2022-11-24T00:58:57.715Z,9.04
2022-11-24T00:59:57.693Z,9.06
2022-11-24T01:00:57.741Z,9.06
2022-11-24T01:01:57.686Z,9.02
2022-11-24T01:02:57.631Z,9.06
2022-11-24T01:03:57.596Z,9.05
2022-11-24T01:04:57.564Z,9.16
2022-11-24T01:05:57.537Z,9.21
2022-11-24T01:06:57.513Z,9.15
2022-11-24T01:07:57.491Z,9.23
2022-11-24T01:08:57.474Z,9.23
2022-11-24T01:09:57.442Z,9.18
2022-11-24T01:10:57.418Z,9.18
2022-11-24T01:11:57.404Z,9.23
2022-11-24T01:12:57.377Z,9.21
2022-11-24T01:13:57.349Z,9.30
2022-11-24T01:14:57.318Z,9.40
2022-11-24T01:15:57.337Z,9.49
2022-11-24T01:16:57.269Z,9.46
2022-11-24T01:17:57.246Z,9.45
2022-11-24T01:18:57.223Z,9.45
2022-11-24T01:19:57.203Z,9.46
2022-11-24T01:20:57.173Z,9.49
2022-11-24T01:21:57.155Z,9.43
2022-11-24T01:22:57.121Z,9.46
2022-11-24T01:23:57.098Z,9.46
2022-11-24T01:24:57.083Z,9.43
2022-11-24T01:25:57.049Z,9.43
2022-11-24T01:26:57.024Z,9.58
2022-11-24T01:27:57.022Z,9.61
2022-11-24T01:28:56.992Z,9.48
2022-11-24T01:29:56.946Z,9.45
2022-11-24T01:30:56.957Z,9.53
2022-11-24T01:31:56.901Z,9.48
2022-11-24T01:32:56.873Z,9.49
2022-11-24T01:33:56.853Z,9.49
2022-11-24T01:34:56.829Z,9.46
2022-11-24T01:35:56.831Z,9.45
2022-11-24T01:36:56.779Z,9.45
2022-11-24T01:37:56.758Z,9.46
2022-11-24T01:38:56.734Z,9.48
2022-11-24T01:39:56.707Z,9.48
2022-11-24T01:40:56.691Z,9.49
2022-11-24T01:41:56.659Z,9.48
2022-11-24T01:42:56.635Z,9.45
2022-11-24T01:43:56.606Z,9.43
2022-11-24T01:44:56.585Z,9.49
2022-11-24T01:45:56.600Z,9.57
2022-11-24T01:46:56.535Z,9.57
2022-11-24T01:47:56.510Z,9.61
2022-11-24T01:48:56.493Z,9.73
2022-11-24T01:49:56.456Z,9.75
2022-11-24T01:50:56.439Z,9.70
2022-11-24T01:51:56.417Z,9.75
2022-11-24T01:52:56.390Z,9.68
2022-11-24T01:53:56.368Z,9.68
2022-11-24T01:54:56.339Z,9.73
2022-11-24T01:55:56.336Z,9.66
2022-11-24T01:56:56.291Z,9.73
2022-11-24T01:57:56.263Z,9.83
2022-11-24T01:58:56.246Z,9.89
2022-11-24T01:59:56.219Z,9.85
2022-11-24T02:00:56.205Z,9.99
2022-11-24T02:01:56.248Z,10.01
2022-11-24T02:02:56.197Z,9.99
2022-11-24T02:03:56.117Z,9.96
2022-11-24T02:04:56.092Z,10.00
2022-11-24T02:05:56.112Z,10.07
2022-11-24T02:06:56.049Z,10.10
2022-11-24T02:07:56.073Z,10.24
2022-11-24T02:08:55.994Z,10.21
2022-11-24T02:09:55.975Z,10.25
2022-11-24T02:10:55.957Z,10.15
2022-11-24T02:11:55.920Z,10.25
2022-11-24T02:12:55.899Z,10.19
2022-11-24T02:13:55.874Z,10.18
2022-11-24T02:14:55.855Z,10.18
2022-11-24T02:15:55.898Z,10.19
2022-11-24T02:16:55.814Z,10.24
2022-11-24T02:17:55.775Z,10.26
2022-11-24T02:18:55.750Z,10.24
2022-11-24T02:19:55.736Z,10.22
2022-11-24T02:20:55.708Z,10.22
2022-11-24T02:21:55.677Z,10.12
2022-11-24T02:22:55.657Z,10.06
2022-11-24T02:23:55.640Z,9.99
2022-11-24T02:24:55.605Z,9.97
2022-11-24T02:25:55.604Z,10.10
2022-11-24T02:26:55.557Z,10.04
2022-11-24T02:27:55.535Z,10.15
2022-11-24T02:28:55.505Z,10.03
2022-11-24T02:29:55.486Z,10.04
2022-11-24T02:30:55.506Z,10.04
2022-11-24T02:31:55.436Z,9.96
2022-11-24T02:32:55.422Z,10.04
2022-11-24T02:33:55.390Z,9.94
2022-11-24T02:34:55.363Z,9.96
2022-11-24T02:35:55.339Z,9.99
2022-11-24T02:36:55.313Z,9.99
2022-11-24T02:37:55.298Z,10.07
2022-11-24T02:38:55.263Z,10.00
2022-11-24T02:39:55.244Z,9.94
2022-11-24T02:40:55.223Z,10.00
2022-11-24T02:41:55.189Z,9.96
2022-11-24T02:42:55.175Z,9.99
2022-11-24T02:43:55.146Z,10.03
2022-11-24T02:44:55.120Z,10.03
2022-11-24T02:45:55.139Z,9.94
2022-11-24T02:46:55.076Z,9.97
2022-11-24T02:47:55.057Z,9.78
2022-11-24T02:48:55.022Z,9.86
2022-11-24T02:49:55.002Z,9.82
2022-11-24T02:50:54.976Z,9.86
2022-11-24T02:51:54.957Z,9.82
2022-11-24T02:52:54.922Z,9.83
2022-11-24T02:53:54.904Z,9.73
2022-11-24T02:54:54.882Z,9.70
2022-11-24T02:55:54.851Z,9.64
2022-11-24T02:56:54.828Z,9.56
2022-11-24T02:57:54.796Z,9.57
2022-11-24T02:58:54.779Z,9.56
2022-11-24T02:59:54.759Z,9.61
2022-11-24T03:00:54.737Z,9.73
2022-11-24T03:01:54.790Z,9.71
2022-11-24T03:02:54.767Z,9.71
2022-11-24T03:03:54.657Z,9.58
2022-11-24T03:04:54.627Z,9.64
2022-11-24T03:05:54.606Z,9.75
2022-11-24T03:06:54.580Z,9.79
2022-11-24T03:07:54.601Z,9.83
2022-11-24T03:08:54.531Z,9.83
2022-11-24T03:09:54.511Z,9.83
2022-11-24T03:10:54.497Z,9.86
2022-11-24T03:11:54.461Z,9.73
2022-11-24T03:12:54.432Z,9.81
2022-11-24T03:13:54.411Z,9.82
2022-11-24T03:14:54.385Z,9.73
2022-11-24T03:15:54.467Z,9.75
2022-11-24T03:16:54.350Z,9.75
2022-11-24T03:17:54.322Z,9.73
2022-11-24T03:18:54.287Z,9.66
2022-11-24T03:19:54.258Z,9.68
2022-11-24T03:20:54.237Z,9.61
2022-11-24T03:21:54.214Z,9.57
2022-11-24T03:22:54.191Z,9.49
2022-11-24T03:23:54.164Z,9.60
2022-11-24T03:24:54.136Z,9.60
2022-11-24T03:25:54.112Z,9.60
2022-11-24T03:26:54.086Z,9.63
2022-11-24T03:27:54.062Z,9.66
2022-11-24T03:28:54.042Z,9.66
2022-11-24T03:29:54.013Z,9.71
2022-11-24T03:30:54.060Z,9.83
2022-11-24T03:31:53.966Z,9.73
2022-11-24T03:32:53.937Z,9.76
2022-11-24T03:33:53.918Z,9.78
2022-11-24T03:34:53.892Z,9.71
2022-11-24T03:35:53.868Z,9.67
2022-11-24T03:36:53.838Z,9.53
2022-11-24T03:37:53.814Z,9.49
2022-11-24T03:38:53.798Z,9.46
2022-11-24T03:39:53.772Z,9.46
2022-11-24T03:40:53.756Z,9.48
2022-11-24T03:41:53.719Z,9.45
2022-11-24T03:42:53.697Z,9.45
2022-11-24T03:43:53.669Z,9.48
2022-11-24T03:44:53.648Z,9.48
2022-11-24T03:45:53.737Z,9.42
2022-11-24T03:46:53.610Z,9.42
2022-11-24T03:47:53.571Z,9.48
2022-11-24T03:48:53.563Z,9.43
2022-11-24T03:49:53.521Z,9.40
2022-11-24T03:50:53.498Z,9.38
2022-11-24T03:51:53.479Z,9.35
2022-11-24T03:52:53.452Z,9.34
2022-11-24T03:53:53.433Z,9.34
2022-11-24T03:54:53.397Z,9.42
2022-11-24T03:55:53.377Z,9.45
2022-11-24T03:56:53.372Z,9.46
2022-11-24T03:57:53.331Z,9.40
2022-11-24T03:58:53.308Z,9.38
2022-11-24T03:59:53.275Z,9.18
2022-11-24T04:00:53.255Z,9.20
2022-11-24T04:01:53.278Z,9.18
2022-11-24T04:02:53.274Z,9.15
2022-11-24T04:03:53.185Z,9.09
2022-11-24T04:04:53.150Z,8.99
2022-11-24T04:05:53.127Z,8.87
2022-11-24T04:06:53.126Z,8.76
2022-11-24T04:07:53.160Z,8.75
2022-11-24T04:08:53.064Z,8.73
2022-11-24T04:09:53.031Z,8.69
2022-11-24T04:10:53.004Z,8.75
2022-11-24T04:11:52.978Z,8.72
2022-11-24T04:12:52.969Z,8.83
2022-11-24T04:13:52.938Z,8.65
2022-11-24T04:14:52.903Z,8.81
2022-11-24T04:15:52.992Z,8.79
2022-11-24T04:16:52.863Z,8.84
2022-11-24T04:17:52.829Z,8.81
2022-11-24T04:18:52.809Z,8.93
2022-11-24T04:19:52.784Z,8.81
2022-11-24T04:20:52.758Z,8.90
2022-11-24T04:21:52.733Z,8.96
2022-11-24T04:22:52.713Z,8.94
2022-11-24T04:23:52.694Z,8.96
2022-11-24T04:24:52.663Z,9.09
2022-11-24T04:25:52.638Z,8.99
2022-11-24T04:26:52.609Z,9.09
2022-11-24T04:27:52.586Z,9.09
2022-11-24T04:28:52.559Z,9.15
2022-11-24T04:29:52.535Z,9.16
2022-11-24T04:30:52.553Z,9.15
2022-11-24T04:31:52.489Z,9.18
2022-11-24T04:32:52.457Z,9.15
2022-11-24T04:33:52.433Z,9.20
2022-11-24T04:34:52.410Z,9.24
2022-11-24T04:35:52.393Z,9.27
2022-11-24T04:36:52.372Z,9.30
2022-11-24T04:37:52.352Z,9.35
2022-11-24T04:39:22.719Z,9.34
2022-11-24T04:39:52.287Z,9.39
2022-11-24T04:40:52.259Z,9.30
2022-11-24T04:41:52.241Z,9.32
2022-11-24T04:42:52.221Z,9.38
2022-11-24T04:43:52.186Z,9.45
2022-11-24T04:44:52.164Z,9.39
2022-11-24T04:45:52.145Z,9.45
2022-11-24T04:46:52.171Z,9.45
2022-11-24T04:47:52.128Z,9.39
2022-11-24T04:48:52.072Z,9.46
2022-11-24T04:49:52.046Z,9.43
2022-11-24T04:50:52.014Z,9.53
2022-11-24T04:51:51.997Z,9.43
2022-11-24T04:52:51.970Z,9.40
2022-11-24T04:53:51.983Z,9.50
2022-11-24T04:54:51.927Z,9.42
2022-11-24T04:55:51.898Z,9.50
2022-11-24T04:56:51.877Z,9.49
2022-11-24T04:57:51.867Z,9.43
2022-11-24T04:58:51.829Z,9.56
2022-11-24T04:59:51.810Z,9.56
2022-11-24T05:00:51.775Z,9.50
2022-11-24T05:01:51.845Z,9.61
2022-11-24T05:02:51.722Z,9.57
2022-11-24T05:03:51.776Z,9.60
2022-11-24T05:04:51.696Z,9.63
2022-11-24T05:05:51.674Z,9.67
2022-11-24T05:06:51.637Z,9.64
2022-11-24T05:07:51.658Z,9.60
2022-11-24T05:08:51.582Z,9.58
2022-11-24T05:09:59.329Z,9.57
2022-11-24T05:10:51.536Z,9.61
2022-11-24T05:11:51.505Z,9.66
2022-11-24T05:12:51.553Z,9.64
2022-11-24T05:13:51.455Z,9.73
2022-11-24T05:14:51.439Z,9.85
2022-11-24T05:15:51.472Z,9.88
2022-11-24T05:16:51.391Z,9.85
2022-11-24T05:17:51.358Z,9.76
2022-11-24T05:18:51.344Z,9.81
2022-11-24T05:19:51.318Z,9.82
2022-11-24T05:20:51.315Z,9.78
2022-11-24T05:21:51.280Z,9.86
2022-11-24T05:22:51.257Z,9.81
2022-11-24T05:23:51.214Z,9.85
2022-11-24T05:24:51.192Z,9.83
2022-11-24T05:25:51.169Z,9.86
2022-11-24T05:26:51.148Z,9.85
2022-11-24T05:27:51.116Z,9.81
2022-11-24T05:28:51.098Z,9.78
2022-11-24T05:29:51.066Z,9.85
2022-11-24T05:30:51.047Z,9.70
2022-11-24T05:31:51.060Z,9.82
2022-11-24T05:32:51.002Z,9.83
2022-11-24T05:33:50.967Z,9.73
2022-11-24T05:34:50.955Z,9.81
2022-11-24T05:35:50.924Z,9.83
2022-11-24T05:36:50.900Z,9.71
2022-11-24T05:37:50.872Z,9.71
2022-11-24T05:38:50.851Z,9.82
2022-11-24T05:39:50.828Z,9.81
2022-11-24T05:40:50.803Z,9.79
2022-11-24T05:41:50.780Z,9.82
2022-11-24T05:42:50.765Z,9.75
2022-11-24T05:43:50.731Z,9.79
2022-11-24T05:44:50.710Z,9.85
2022-11-24T05:45:50.677Z,9.78
2022-11-24T05:46:50.718Z,9.76
2022-11-24T05:47:50.627Z,9.78
2022-11-24T05:48:50.623Z,9.81
2022-11-24T05:49:50.582Z,9.75
2022-11-24T05:50:50.565Z,9.96
2022-11-24T05:51:50.529Z,9.81
2022-11-24T05:52:50.515Z,9.85
2022-11-24T05:53:50.490Z,9.86
2022-11-24T05:54:50.463Z,9.81
2022-11-24T05:55:50.431Z,9.81
2022-11-24T05:56:50.416Z,9.85
2022-11-24T05:57:50.384Z,9.86
2022-11-24T05:58:50.398Z,9.96
2022-11-24T05:59:50.347Z,9.86
2022-11-24T06:00:50.325Z,9.88
2022-11-24T06:01:50.418Z,9.97
2022-11-24T06:02:50.419Z,9.81
2022-11-24T06:03:50.246Z,9.94
2022-11-24T06:04:50.219Z,9.89
2022-11-24T06:05:50.188Z,9.85
2022-11-24T06:06:50.171Z,9.89
2022-11-24T06:07:50.187Z,9.88
2022-11-24T06:08:50.139Z,9.88
2022-11-24T06:09:50.093Z,9.81
2022-11-24T06:10:50.079Z,9.78
2022-11-24T06:11:50.051Z,9.83
2022-11-24T06:12:50.031Z,9.88
2022-11-24T06:13:50.104Z,9.89
2022-11-24T06:14:49.983Z,9.86
2022-11-24T06:15:49.945Z,9.82
2022-11-24T06:16:50.008Z,9.83
2022-11-24T06:17:49.896Z,9.78
2022-11-24T06:18:49.894Z,9.85
2022-11-24T06:19:49.849Z,9.83
2022-11-24T06:21:09.863Z,9.78
2022-11-24T06:21:49.803Z,9.78
2022-11-24T06:22:49.781Z,9.76
2022-11-24T06:23:49.754Z,9.76
2022-11-24T06:24:49.732Z,9.73
2022-11-24T06:25:51.631Z,9.71
2022-11-24T06:26:49.683Z,9.57
2022-11-24T06:27:49.656Z,9.60
2022-11-24T06:28:49.641Z,9.66
2022-11-24T06:29:49.604Z,9.57
2022-11-24T06:30:49.599Z,9.60
2022-11-24T06:31:49.571Z,9.71
2022-11-24T06:32:50.187Z,9.75
2022-11-24T06:33:49.518Z,9.70
2022-11-24T06:34:49.494Z,9.70
2022-11-24T06:35:49.460Z,9.66
2022-11-24T06:36:49.441Z,9.70
2022-11-24T06:37:49.408Z,9.75
2022-11-24T06:38:49.396Z,9.64
2022-11-24T06:39:49.359Z,9.73
2022-11-24T06:40:49.350Z,9.76
2022-11-24T06:41:49.318Z,9.73
2022-11-24T06:42:49.297Z,9.76
2022-11-24T06:43:49.263Z,9.67
2022-11-24T06:44:49.246Z,9.57
2022-11-24T06:45:49.306Z,9.61
2022-11-24T06:46:49.213Z,9.58
2022-11-24T06:47:49.169Z,9.61
2022-11-24T06:48:49.160Z,9.57
2022-11-24T06:49:49.119Z,9.56
2022-11-24T06:50:49.101Z,9.49
2022-11-24T06:51:49.068Z,9.48
2022-11-24T06:52:49.051Z,9.46
2022-11-24T06:53:49.023Z,9.42
2022-11-24T06:54:49.004Z,9.45
2022-11-24T06:55:48.975Z,9.43
2022-11-24T06:56:49.257Z,9.43
2022-11-24T06:57:48.923Z,9.46
2022-11-24T06:58:48.909Z,9.48
2022-11-24T06:59:48.874Z,9.46
2022-11-24T07:00:48.906Z,9.42
2022-11-24T07:01:48.830Z,9.46
2022-11-24T07:02:48.847Z,9.40
2022-11-24T07:03:48.793Z,9.45
2022-11-24T07:04:48.759Z,9.42
2022-11-24T07:05:48.733Z,9.48
2022-11-24T07:06:48.710Z,9.40
2022-11-24T07:07:50.815Z,9.42
2022-11-24T07:08:48.662Z,9.40
2022-11-24T07:09:48.634Z,9.45
2022-11-24T07:10:48.624Z,9.40
2022-11-24T07:11:48.584Z,9.38
2022-11-24T07:12:48.562Z,9.39
2022-11-24T07:13:48.532Z,9.43
2022-11-24T07:14:48.520Z,9.38
2022-11-24T07:15:48.485Z,9.39
2022-11-24T07:16:48.529Z,9.48
2022-11-24T07:17:48.433Z,9.45
2022-11-24T07:18:48.421Z,9.46
2022-11-24T07:19:48.384Z,9.48
2022-11-24T07:20:48.374Z,9.49
2022-11-24T07:21:48.343Z,9.45
2022-11-24T07:22:48.316Z,9.49
2022-11-24T07:23:48.296Z,9.48
2022-11-24T07:24:48.269Z,9.43
2022-11-24T07:25:48.250Z,9.43
2022-11-24T07:26:48.219Z,9.45
2022-11-24T07:27:48.194Z,9.46
2022-11-24T07:28:48.168Z,9.49
2022-11-24T07:29:48.139Z,9.48
2022-11-24T07:30:48.124Z,9.46
2022-11-24T07:31:48.220Z,9.45
2022-11-24T07:32:48.068Z,9.45
2022-11-24T07:33:48.059Z,9.49
2022-11-24T07:34:48.032Z,9.40
2022-11-24T07:35:48.000Z,9.40
2022-11-24T07:36:47.972Z,9.39
2022-11-24T07:37:47.944Z,9.39
2022-11-24T07:38:47.932Z,9.42
2022-11-24T07:39:47.895Z,9.45
2022-11-24T07:40:47.889Z,9.38
2022-11-24T07:41:47.853Z,9.38
2022-11-24T07:42:47.823Z,9.34
2022-11-24T07:43:47.816Z,9.39
2022-11-24T07:44:47.794Z,9.38
2022-11-24T07:45:47.785Z,9.39
2022-11-24T07:46:47.731Z,9.35
2022-11-24T07:47:47.702Z,9.32
2022-11-24T07:48:47.696Z,9.38
2022-11-24T07:49:47.664Z,9.38
2022-11-24T07:50:52.501Z,9.38
2022-11-24T07:51:47.604Z,9.35
2022-11-24T07:52:47.583Z,9.30
2022-11-24T07:53:47.567Z,9.32
2022-11-24T07:54:47.533Z,9.34
2022-11-24T07:55:47.503Z,9.39
2022-11-24T07:56:47.482Z,9.32
2022-11-24T07:57:47.453Z,9.42
2022-11-24T07:58:52.644Z,9.42
2022-11-24T07:59:47.403Z,9.39
2022-11-24T08:00:47.393Z,9.48
2022-11-24T08:01:47.410Z,9.48
2022-11-24T08:02:47.341Z,9.45
2022-11-24T08:03:47.392Z,9.49
2022-11-24T08:04:47.287Z,9.60
2022-11-24T08:06:16.073Z,9.53
2022-11-24T08:06:47.762Z,9.60
2022-11-24T08:07:47.259Z,9.60
2022-11-24T08:08:47.191Z,9.63
2022-11-24T08:09:47.165Z,9.73
2022-11-24T08:10:47.164Z,9.70
2022-11-24T08:11:47.120Z,9.79
2022-11-24T08:12:47.091Z,9.88
2022-11-24T08:13:47.067Z,9.82
2022-11-24T08:14:47.044Z,9.86
2022-11-24T08:15:47.022Z,9.86
2022-11-24T08:16:47.134Z,9.99
2022-11-24T08:17:46.973Z,9.89
2022-11-24T08:18:46.951Z,9.94
2022-11-24T08:19:46.923Z,9.86
2022-11-24T08:20:46.905Z,9.89
2022-11-24T08:21:46.872Z,9.81
2022-11-24T08:22:46.861Z,9.85
2022-11-24T08:23:46.825Z,9.82
2022-11-24T08:24:46.805Z,9.85
2022-11-24T08:25:46.775Z,9.83
2022-11-24T08:26:46.758Z,9.86
2022-11-24T08:27:46.730Z,9.86
2022-11-24T08:28:46.708Z,9.89
2022-11-24T08:29:46.678Z,9.81
2022-11-24T08:30:46.663Z,9.83
2022-11-24T08:31:46.705Z,9.88
2022-11-24T08:32:46.611Z,9.85
2022-11-24T08:33:46.593Z,9.76
2022-11-24T08:34:46.563Z,9.89
2022-11-24T08:35:46.539Z,9.78
2022-11-24T08:36:46.513Z,9.79
2022-11-24T08:37:46.486Z,9.75
2022-11-24T08:38:46.507Z,9.76
2022-11-24T08:39:46.448Z,9.83
2022-11-24T08:40:46.424Z,9.83
2022-11-24T08:41:46.393Z,9.75
2022-11-24T08:42:46.368Z,9.75
2022-11-24T08:43:46.342Z,9.73
2022-11-24T08:44:46.323Z,9.76
2022-11-24T08:45:46.369Z,9.75
2022-11-24T08:46:46.275Z,9.86
2022-11-24T08:47:46.249Z,9.85
2022-11-24T08:48:46.269Z,10.00
2022-11-24T08:49:46.199Z,9.99
2022-11-24T08:50:46.180Z,10.14
2022-11-24T08:51:46.149Z,10.15
2022-11-24T08:52:46.132Z,10.07
2022-11-24T08:53:46.114Z,10.14
2022-11-24T08:54:46.084Z,10.22
2022-11-24T08:55:46.050Z,10.30
2022-11-24T08:56:46.037Z,10.21
2022-11-24T08:57:46.012Z,10.24
2022-11-24T08:58:46.067Z,10.15
2022-11-24T08:59:45.958Z,10.30
2022-11-24T09:00:45.944Z,10.32
2022-11-24T09:01:45.949Z,10.34
2022-11-24T09:02:45.888Z,10.28
2022-11-24T09:03:50.468Z,10.28
2022-11-24T09:04:45.862Z,10.32
2022-11-24T09:05:53.249Z,10.30
2022-11-24T09:06:45.792Z,10.33
2022-11-24T09:07:45.831Z,10.43
2022-11-24T09:08:45.767Z,10.36
2022-11-24T09:09:45.722Z,10.53
2022-11-24T09:10:45.777Z,10.55
2022-11-24T09:11:45.675Z,10.53
2022-11-24T09:12:45.645Z,10.59
2022-11-24T09:13:45.629Z,10.55
2022-11-24T09:14:45.599Z,10.51
2022-11-24T09:15:45.582Z,10.53
2022-11-24T09:16:45.571Z,10.58
2022-11-24T09:17:45.532Z,10.60
2022-11-24T09:18:45.506Z,10.63
2022-11-24T09:19:45.492Z,10.62
2022-11-24T09:20:45.457Z,10.62
2022-11-24T09:21:45.444Z,10.70
2022-11-24T09:22:45.417Z,10.63
2022-11-24T09:23:45.391Z,10.71
2022-11-24T09:24:45.371Z,10.62
2022-11-24T09:25:45.344Z,10.76
2022-11-24T09:26:47.772Z,10.70
2022-11-24T09:27:45.297Z,10.66
2022-11-24T09:28:45.275Z,10.65
2022-11-24T09:29:45.244Z,10.62
2022-11-24T09:30:45.240Z,10.55
2022-11-24T09:31:45.197Z,10.56
2022-11-24T09:32:45.171Z,10.52
2022-11-24T09:33:45.154Z,10.42
2022-11-24T09:34:45.132Z,10.56
2022-11-24T09:35:45.116Z,10.66
2022-11-24T09:36:45.077Z,11.06
2022-11-24T09:37:45.063Z,11.38
2022-11-24T09:38:45.047Z,11.11
2022-11-24T09:39:45.010Z,11.03
2022-11-24T09:40:44.979Z,11.07
2022-11-24T09:41:44.980Z,11.01
2022-11-24T09:42:49.319Z,10.99
2022-11-24T09:43:44.916Z,10.99
2022-11-24T09:44:44.884Z,11.07
2022-11-24T09:46:44.922Z,11.02
2022-11-24T09:47:44.824Z,11.11
2022-11-24T09:48:44.801Z,11.21
2022-11-24T09:49:49.878Z,11.17
2022-11-24T09:50:44.745Z,11.14
2022-11-24T09:51:44.727Z,11.21
2022-11-24T09:52:44.699Z,11.16
2022-11-24T09:53:44.696Z,11.21
2022-11-24T09:54:44.648Z,11.21
2022-11-24T09:55:44.630Z,11.28
2022-11-24T09:56:44.603Z,11.24
2022-11-24T09:57:44.589Z,11.24
2022-11-24T09:58:44.560Z,11.25
2022-11-24T09:59:44.567Z,11.29
2022-11-24T10:00:44.515Z,11.35
2022-11-24T10:01:44.539Z,11.28
2022-11-24T10:02:44.468Z,11.32
2022-11-24T10:03:44.446Z,11.24
2022-11-24T10:04:44.516Z,11.17
2022-11-24T10:05:44.398Z,11.20
2022-11-24T10:06:44.412Z,11.20
2022-11-24T10:07:44.456Z,11.21
2022-11-24T10:08:44.325Z,11.19
2022-11-24T10:09:44.310Z,11.11
2022-11-24T10:10:44.332Z,11.28
2022-11-24T10:11:44.266Z,11.27
2022-11-24T10:12:44.243Z,11.24
2022-11-24T10:13:44.210Z,11.27
2022-11-24T10:14:44.192Z,11.31
2022-11-24T10:15:44.214Z,11.32
2022-11-24T10:16:44.148Z,11.27
2022-11-24T10:17:44.124Z,11.29
2022-11-24T10:18:44.090Z,11.19
2022-11-24T10:19:44.434Z,11.32
2022-11-24T10:20:44.060Z,11.32
2022-11-24T10:21:44.025Z,11.31
2022-11-24T10:22:44.001Z,11.27
2022-11-24T10:23:43.981Z,11.24
2022-11-24T10:24:43.952Z,11.27
2022-11-24T10:25:43.939Z,11.27
2022-11-24T10:26:43.909Z,11.46
2022-11-24T10:27:43.889Z,11.87
2022-11-24T10:28:43.857Z,12.38
2022-11-24T10:29:43.839Z,12.87
2022-11-24T10:30:43.961Z,13.00
2022-11-24T10:31:43.813Z,13.06
2022-11-24T10:32:43.763Z,12.69
2022-11-24T10:33:43.757Z,12.67
2022-11-24T10:34:43.719Z,12.92
2022-11-24T10:35:43.710Z,13.11
2022-11-24T10:36:43.680Z,13.02
2022-11-24T10:37:43.698Z,12.77
2022-11-24T10:38:43.638Z,12.56
2022-11-24T10:39:43.610Z,12.37
2022-11-24T10:40:59.119Z,12.19
2022-11-24T10:41:43.571Z,12.13
2022-11-24T10:42:43.546Z,12.13
2022-11-24T10:43:43.521Z,12.04
2022-11-24T10:44:43.495Z,11.99
2022-11-24T10:45:43.490Z,11.99
2022-11-24T10:46:43.585Z,11.85
2022-11-24T10:47:43.441Z,11.89
2022-11-24T10:48:43.424Z,11.86
2022-11-24T10:49:43.390Z,11.83
2022-11-24T10:50:43.363Z,11.89
2022-11-24T10:51:43.356Z,11.86
2022-11-24T10:52:43.370Z,11.71
2022-11-24T10:53:43.303Z,11.75
2022-11-24T10:54:43.277Z,11.71
2022-11-24T10:55:43.253Z,11.72
2022-11-24T10:56:43.228Z,11.70
2022-11-24T10:57:43.218Z,11.77
2022-11-24T10:58:43.189Z,11.82
2022-11-24T10:59:43.168Z,11.85
2022-11-24T11:00:43.137Z,11.85
2022-11-24T11:01:43.179Z,11.93
2022-11-24T11:02:43.136Z,11.83
2022-11-24T11:03:43.075Z,11.86
2022-11-24T11:04:43.051Z,11.83
2022-11-24T11:05:43.050Z,11.86
2022-11-24T11:06:43.002Z,11.70
2022-11-24T11:07:43.157Z,11.62
2022-11-24T11:08:42.981Z,11.67
2022-11-24T11:09:42.941Z,11.86
2022-11-24T11:10:42.917Z,12.46
2022-11-24T11:11:42.895Z,12.79
2022-11-24T11:12:44.684Z,12.97
2022-11-24T11:13:42.848Z,12.87
2022-11-24T11:14:42.827Z,12.84
2022-11-24T11:15:42.830Z,12.46
2022-11-24T11:16:42.785Z,12.24
2022-11-24T11:17:42.772Z,12.19
2022-11-24T11:18:42.737Z,12.30
2022-11-24T11:19:50.508Z,12.21
2022-11-24T11:20:42.692Z,12.05
2022-11-24T11:21:42.682Z,12.02
2022-11-24T11:22:42.667Z,11.87
2022-11-24T11:23:42.628Z,11.65
2022-11-24T11:24:42.605Z,12.09
2022-11-24T11:25:42.588Z,12.39
2022-11-24T11:26:42.561Z,12.62
2022-11-24T11:27:42.550Z,12.81
2022-11-24T11:28:42.508Z,12.81
2022-11-24T11:31:43.055Z,12.81
2022-11-24T11:34:42.396Z,12.06
2022-11-24T11:35:42.368Z,11.96
2022-11-24T11:36:42.340Z,11.83
2022-11-24T11:37:42.324Z,11.68
2022-11-24T11:38:42.295Z,11.57
2022-11-24T11:39:48.304Z,11.54
2022-11-24T11:40:42.246Z,11.57
2022-11-24T11:41:42.231Z,11.49
2022-11-24T11:43:42.190Z,11.54
2022-11-24T11:44:42.162Z,11.64
2022-11-24T11:45:42.170Z,11.65
2022-11-24T11:46:42.200Z,11.64
2022-11-24T11:47:42.097Z,11.75
2022-11-24T11:48:43.869Z,11.64
2022-11-24T11:49:42.056Z,11.70
2022-11-24T11:51:06.765Z,11.68
2022-11-24T11:51:42.089Z,11.78
2022-11-24T11:52:41.978Z,11.77
2022-11-24T11:53:41.963Z,11.71
2022-11-24T11:54:41.933Z,11.72
2022-11-24T11:55:46.591Z,11.82
2022-11-24T11:56:41.887Z,11.65
2022-11-24T11:57:41.871Z,11.65
2022-11-24T11:58:41.840Z,11.80
2022-11-24T11:59:41.828Z,11.86
2022-11-24T12:00:41.796Z,11.87
2022-11-24T12:01:41.778Z,12.06
2022-11-24T12:02:41.859Z,12.15
2022-11-24T12:03:42.005Z,12.05
2022-11-24T12:04:41.712Z,12.38
2022-11-24T12:05:41.684Z,12.67
2022-11-24T12:06:41.663Z,12.75
2022-11-24T12:07:41.728Z,12.52
2022-11-24T12:09:11.378Z,12.34
2022-11-24T12:09:41.610Z,12.41
2022-11-24T12:10:41.569Z,12.37
2022-11-24T12:11:41.563Z,12.27
2022-11-24T12:12:41.528Z,12.11
2022-11-24T12:13:41.511Z,12.02
2022-11-24T12:14:41.484Z,11.97
2022-11-24T12:15:41.520Z,12.02
2022-11-24T12:16:41.430Z,11.93
2022-11-24T12:17:41.413Z,11.82
2022-11-24T12:18:57.291Z,11.83
2022-11-24T12:19:41.390Z,11.86
2022-11-24T12:20:41.356Z,11.89
2022-11-24T12:21:41.331Z,11.77
2022-11-24T12:22:41.303Z,11.80
2022-11-24T12:23:41.289Z,11.77
2022-11-24T12:24:41.296Z,11.65
2022-11-24T12:25:41.246Z,11.70
2022-11-24T12:26:41.211Z,11.74
2022-11-24T12:27:41.193Z,11.78
2022-11-24T12:28:41.162Z,11.82
2022-11-24T12:29:41.145Z,11.97
2022-11-24T12:30:41.120Z,12.02
2022-11-24T12:31:41.129Z,11.97
2022-11-24T12:32:41.081Z,12.23
2022-11-24T12:33:43.973Z,12.41
2022-11-24T12:34:41.025Z,12.52
2022-11-24T12:35:41.006Z,12.56
2022-11-24T12:36:40.979Z,12.52
2022-11-24T12:37:40.964Z,12.51
2022-11-24T12:38:40.937Z,12.49
2022-11-24T12:39:40.917Z,12.57
2022-11-24T12:40:46.405Z,12.52
2022-11-24T12:41:42.535Z,12.52
2022-11-24T12:42:40.845Z,12.52
2022-11-24T12:43:40.827Z,12.56
2022-11-24T12:44:40.797Z,12.60
2022-11-24T12:45:40.775Z,12.31
2022-11-24T12:46:40.833Z,12.38
2022-11-24T12:47:40.738Z,12.44
2022-11-24T12:48:40.723Z,12.41
2022-11-24T12:49:40.687Z,12.57
2022-11-24T12:50:40.678Z,12.51
2022-11-24T12:51:40.645Z,12.52
2022-11-24T12:52:40.616Z,12.54
2022-11-24T12:53:40.605Z,12.51
2022-11-24T12:54:40.576Z,12.39
2022-11-24T12:55:40.558Z,12.38
2022-11-24T12:56:40.535Z,12.42
2022-11-24T12:57:40.510Z,12.29
2022-11-24T12:58:40.500Z,12.19
2022-11-24T12:59:40.466Z,12.24
2022-11-24T13:00:40.443Z,12.24
2022-11-24T13:01:40.677Z,12.33
2022-11-24T13:02:40.503Z,12.42
2022-11-24T13:03:40.374Z,12.49
2022-11-24T13:04:40.354Z,12.49
2022-11-24T13:05:40.334Z,12.54
2022-11-24T13:07:40.309Z,12.46
2022-11-24T13:08:40.258Z,12.46
2022-11-24T13:09:40.241Z,12.34
2022-11-24T13:10:55.792Z,12.30
2022-11-24T13:11:40.200Z,12.26
2022-11-24T13:12:40.171Z,12.26
2022-11-24T13:13:40.153Z,12.26
2022-11-24T13:14:40.132Z,12.24
2022-11-24T13:15:46.028Z,12.29